Belle Chasse — WDG2912 — position and weather

sailwx.info

Track history (hours):
 
Tides and Currents Weather Stations Pressure Air Temp Water Temp Dewpoint Dewpoint Depression Visibility Wind Speed Wind Dir Waves Ship Positions

Belle Chasse

Owner: Higman Barge Lines, Inc, Orange, TX. More information available from US FCC via Universal Licensing System and Coast Guard Vessel Documentation Center.

Last reported at 2015-May-14 07:29 UTC. Time now 2015-May-27 07:57 UTC.
Position N 29°24' W 094°49'.
Warning: this ship's position is 13 days out of date.

Length 26 m; draft 3 m.

Type: Towing. MMSI: 367520550.

Date/timePositionNaut miles runAvg speedWind from/ knotsBaromVisibWave heightAir tempDewpointWater temp
2015-May-14 07:29N 29°24' W 094°49'6 6.3
2015-May-14 06:34N 29°30' W 094°52'6 6.1
2015-May-14 05:33N 29°35' W 094°56'6 6.4
2015-May-14 04:33N 29°41' W 094°59'6 5.7
2015-May-14 03:33N 29°45' W 095°04'4 3.3
2015-May-14 02:26N 29°44' W 095°08'5 3.9
2015-May-14 01:10N 29°44' W 095°14'0 0.0
2015-May-13 01:15N 29°43' W 095°14'4 5.6
2015-May-13 00:33N 29°45' W 095°10'5 5.4
2015-May-12 23:33N 29°45' W 095°04'5 4.8
2015-May-12 22:33N 29°41' W 095°00'0 0.4
2015-May-12 21:33N 29°41' W 095°00'0 0.0
2015-May-12 20:31N 29°41' W 095°00'0 0.0
2015-May-12 19:33N 29°41' W 095°00'0 0.2
2015-May-12 18:33N 29°41' W 095°00'5 4.9
2015-May-12 17:33N 29°37' W 094°57'7 7.0
2015-May-12 16:33N 29°31' W 094°53'8 7.1
2015-May-12 15:28N 29°24' W 094°49'  
2015-May-06 14:33N 29°29' W 094°52'7 7.1
2015-May-06 13:33N 29°35' W 094°56'8 7.5
2015-May-06 12:33N 29°41' W 094°59'7 5.9
2015-May-06 11:26N 29°46' W 095°05'8 0.3
2015-May-05 12:09N 29°43' W 095°14'4 6.6
2015-May-05 11:33N 29°44' W 095°09'3 1.8
2015-May-05 10:09N 29°46' W 095°07'1 0.1
2015-May-04 22:31N 29°45' W 095°06'1 1.1
2015-May-04 21:33N 29°45' W 095°07'0 0.0
2015-May-04 20:30N 29°45' W 095°07'0 0.0
2015-May-04 19:24N 29°45' W 095°07'0 0.0
2015-May-04 18:33N 29°45' W 095°07'0 0.0
2015-May-04 17:30N 29°45' W 095°06'0 0.0
2015-May-04 16:27N 29°45' W 095°07'0 0.0
2015-May-04 15:33N 29°45' W 095°07'0 0.0
2015-May-04 14:33N 29°45' W 095°07'1 1.2
2015-May-04 13:33N 29°46' W 095°07'0 0.3
2015-May-04 12:32N 29°46' W 095°07'0 0.0
2015-May-04 11:32N 29°46' W 095°07'0 0.0
2015-May-04 10:32N 29°46' W 095°07'0 0.0
2015-May-04 09:32N 29°46' W 095°07'0 0.0
2015-May-04 08:32N 29°46' W 095°07'0 0.0
2015-May-04 07:32N 29°46' W 095°07'  
Track history (hours):
 
Tides and Currents Weather Stations Pressure Air Temp Water Temp Dewpoint Dewpoint Depression Visibility Wind Speed Wind Dir Waves Ship Positions

Belle Chasse

Owner: Higman Barge Lines, Inc, Orange, TX. More information available from US FCC via Universal Licensing System and Coast Guard Vessel Documentation Center.

Last reported at 2015-May-14 07:29 UTC. Time now 2015-May-27 07:57 UTC.
Position N 29°24' W 094°49'.
Warning: this ship's position is 13 days out of date.

Length 26 m; draft 3 m.

Type: Towing. MMSI: 367520550.

Date/timePositionNaut miles runAvg speedWind from/ knotsBaromVisibWave heightAir tempDewpointWater temp
2015-May-14 07:29N 29°24' W 094°49'6 6.3
2015-May-14 06:34N 29°30' W 094°52'6 6.1
2015-May-14 05:33N 29°35' W 094°56'6 6.4
2015-May-14 04:33N 29°41' W 094°59'6 5.7
2015-May-14 03:33N 29°45' W 095°04'4 3.3
2015-May-14 02:26N 29°44' W 095°08'5 3.9
2015-May-14 01:10N 29°44' W 095°14'0 0.0
2015-May-13 01:15N 29°43' W 095°14'4 5.6
2015-May-13 00:33N 29°45' W 095°10'5 5.4
2015-May-12 23:33N 29°45' W 095°04'5 4.8
2015-May-12 22:33N 29°41' W 095°00'0 0.4
2015-May-12 21:33N 29°41' W 095°00'0 0.0
2015-May-12 20:31N 29°41' W 095°00'0 0.0
2015-May-12 19:33N 29°41' W 095°00'0 0.2
2015-May-12 18:33N 29°41' W 095°00'5 4.9
2015-May-12 17:33N 29°37' W 094°57'7 7.0
2015-May-12 16:33N 29°31' W 094°53'8 7.1
2015-May-12 15:28N 29°24' W 094°49'  
2015-May-06 14:33N 29°29' W 094°52'7 7.1
2015-May-06 13:33N 29°35' W 094°56'8 7.5
2015-May-06 12:33N 29°41' W 094°59'7 5.9
2015-May-06 11:26N 29°46' W 095°05'8 0.3
2015-May-05 12:09N 29°43' W 095°14'4 6.6
2015-May-05 11:33N 29°44' W 095°09'3 1.8
2015-May-05 10:09N 29°46' W 095°07'1 0.1
2015-May-04 22:31N 29°45' W 095°06'1 1.1
2015-May-04 21:33N 29°45' W 095°07'0 0.0
2015-May-04 20:30N 29°45' W 095°07'0 0.0
2015-May-04 19:24N 29°45' W 095°07'0 0.0
2015-May-04 18:33N 29°45' W 095°07'0 0.0
2015-May-04 17:30N 29°45' W 095°06'0 0.0
2015-May-04 16:27N 29°45' W 095°07'0 0.0
2015-May-04 15:33N 29°45' W 095°07'0 0.0
2015-May-04 14:33N 29°45' W 095°07'1 1.2
2015-May-04 13:33N 29°46' W 095°07'0 0.3
2015-May-04 12:32N 29°46' W 095°07'0 0.0
2015-May-04 11:32N 29°46' W 095°07'0 0.0
2015-May-04 10:32N 29°46' W 095°07'0 0.0
2015-May-04 09:32N 29°46' W 095°07'0 0.0
2015-May-04 08:32N 29°46' W 095°07'0 0.0
2015-May-04 07:32N 29°46' W 095°07'  

Dump ship's entire track history